Time,TemperatureF,DewpointF,PressureIn,WindDirection,WindDirectionDegrees,WindSpeedMPH,WindSpeedGustMPH,Humidity,HourlyPrecipIn,Conditions,Clouds,dailyrainin,SolarRadiationWatts/m^2,SoftwareType,DateUTC
2013-11-01 00:02:00,51.0,37.0,-100.00,SSW,208,4.0,7.0,58,0.00,,,-99.99,0.000000,,2013-11-01 07:02:00,
2013-11-01 00:22:00,50.0,37.0,-100.00,WSW,239,3.0,8.0,61,0.00,,,-99.99,0.000000,,2013-11-01 07:22:00,
2013-11-01 00:32:00,50.0,37.0,-100.00,WSW,239,3.0,8.0,61,0.00,,,-99.99,0.000000,,2013-11-01 07:32:00,
2013-11-01 00:42:00,50.0,37.0,-100.00,WSW,239,3.0,8.0,61,0.00,,,-99.99,0.000000,,2013-11-01 07:42:00,
2013-11-01 00:52:00,50.0,37.0,-100.00,WSW,239,3.0,8.0,61,0.00,,,-99.99,0.000000,,2013-11-01 07:52:00,
2013-11-01 01:02:00,50.0,37.0,-100.00,WSW,239,3.0,8.0,61,0.00,,,-99.99,0.000000,,2013-11-01 08:02:00,
2013-11-01 01:22:00,50.0,37.0,-100.00,SW,226,3.0,8.0,61,0.00,,,-99.99,0.000000,,2013-11-01 08:22:00,
2013-11-01 01:32:00,50.0,37.0,-100.00,SW,226,3.0,8.0,61,0.00,,,-99.99,0.000000,,2013-11-01 08:32:00,
2013-11-01 01:42:00,50.0,37.0,-100.00,SW,226,3.0,8.0,61,0.00,,,-99.99,0.000000,,2013-11-01 08:42:00,
2013-11-01 01:52:00,50.0,37.0,-100.00,SW,226,3.0,8.0,61,0.00,,,-99.99,0.000000,,2013-11-01 08:52:00,
2013-11-01 02:02:00,50.0,37.0,-100.00,SW,226,3.0,8.0,61,0.00,,,-99.99,0.000000,,2013-11-01 09:02:00,
2013-11-01 02:22:00,49.0,37.0,-100.00,WSW,244,3.0,7.0,64,0.00,,,-99.99,0.000000,,2013-11-01 09:22:00,
2013-11-01 02:33:00,49.0,37.0,-100.00,WSW,244,3.0,7.0,64,0.00,,,-99.99,0.000000,,2013-11-01 09:33:00,
2013-11-01 02:43:00,49.0,37.0,-100.00,WSW,244,3.0,7.0,64,0.00,,,-99.99,0.000000,,2013-11-01 09:43:00,
2013-11-01 02:53:00,49.0,37.0,-100.00,WSW,244,3.0,7.0,64,0.00,,,-99.99,0.000000,,2013-11-01 09:53:00,
2013-11-01 03:03:00,49.0,37.0,-100.00,WSW,244,3.0,7.0,64,0.00,,,-99.99,0.000000,,2013-11-01 10:03:00,
2013-11-01 03:23:00,47.0,37.0,-100.00,WSW,242,3.0,7.0,67,0.00,,,-99.99,0.000000,,2013-11-01 10:23:00,
2013-11-01 03:33:00,47.0,37.0,-100.00,WSW,242,3.0,7.0,67,0.00,,,-99.99,0.000000,,2013-11-01 10:33:00,
2013-11-01 03:42:00,47.0,37.0,-100.00,WSW,242,3.0,7.0,67,0.00,,,-99.99,0.000000,,2013-11-01 10:42:00,
2013-11-01 03:53:00,47.0,37.0,-100.00,WSW,242,3.0,7.0,67,0.00,,,-99.99,0.000000,,2013-11-01 10:53:00,
2013-11-01 04:02:00,47.0,37.0,-100.00,WSW,242,3.0,7.0,67,0.00,,,-99.99,0.000000,,2013-11-01 11:02:00,
2013-11-01 04:42:00,48.0,37.0,-100.00,SW,233,3.0,7.0,65,0.00,,,-99.99,0.000000,,2013-11-01 11:42:00,
2013-11-01 04:52:00,48.0,37.0,-100.00,SW,233,3.0,7.0,65,0.00,,,-99.99,0.000000,,2013-11-01 11:52:00,
2013-11-01 05:02:00,48.0,37.0,-100.00,SW,233,3.0,7.0,65,0.00,,,-99.99,0.000000,,2013-11-01 12:02:00,
2013-11-01 05:42:00,47.0,36.0,-100.00,WSW,257,4.0,9.0,65,0.00,,,-99.99,0.000000,,2013-11-01 12:42:00,
2013-11-01 05:52:00,47.0,36.0,-100.00,WSW,257,4.0,9.0,65,0.00,,,-99.99,0.000000,,2013-11-01 12:52:00,
2013-11-01 06:01:00,47.0,36.0,-100.00,WSW,257,4.0,9.0,65,0.00,,,-99.99,0.000000,,2013-11-01 13:01:00,
2013-11-01 06:42:00,47.0,35.0,-100.00,WSW,248,3.0,8.0,64,0.00,,,-99.99,0.000000,,2013-11-01 13:42:00,
2013-11-01 06:52:00,47.0,35.0,-100.00,WSW,248,3.0,8.0,64,0.00,,,-99.99,0.000000,,2013-11-01 13:52:00,
2013-11-01 07:02:00,47.0,35.0,-100.00,WSW,248,3.0,8.0,64,0.00,,,-99.99,0.000000,,2013-11-01 14:02:00,
2013-11-01 07:42:00,47.0,35.0,-100.00,WSW,240,4.0,7.0,63,0.00,,,-99.99,0.000000,,2013-11-01 14:42:00,
2013-11-01 07:52:00,47.0,35.0,-100.00,WSW,240,4.0,7.0,63,0.00,,,-99.99,0.000000,,2013-11-01 14:52:00,
2013-11-01 08:02:00,47.0,35.0,-100.00,WSW,240,4.0,7.0,63,0.00,,,-99.99,0.000000,,2013-11-01 15:02:00,
2013-11-01 08:04:00,47.0,35.0,-100.00,WSW,242,4.0,7.0,63,0.00,,,-99.99,6.000000,,2013-11-01 15:04:00,
2013-11-01 08:22:00,47.0,35.0,-100.00,WSW,242,4.0,7.0,63,0.00,,,-99.99,6.000000,,2013-11-01 15:22:00,
2013-11-01 08:33:00,47.0,35.0,-100.00,WSW,242,4.0,7.0,63,0.00,,,-99.99,6.000000,,2013-11-01 15:33:00,
2013-11-01 08:44:00,47.0,35.0,-100.00,WSW,242,4.0,7.0,63,0.00,,,-99.99,6.000000,,2013-11-01 15:44:00,
2013-11-01 08:54:00,47.0,35.0,-100.00,WSW,242,4.0,7.0,63,0.00,,,-99.99,6.000000,,2013-11-01 15:54:00,
2013-11-01 09:43:00,52.0,37.0,-100.00,SSW,208,2.0,7.0,56,0.00,,,0.00,136.000000,,2013-11-01 16:43:00,
2013-11-01 09:53:00,52.0,37.0,-100.00,SSW,208,2.0,7.0,56,0.00,,,0.00,136.000000,,2013-11-01 16:53:00,
2013-11-01 10:02:00,52.0,37.0,-100.00,SSW,208,2.0,7.0,56,0.00,,,0.00,136.000000,,2013-11-01 17:02:00,
2013-11-01 10:43:00,61.0,37.0,-100.00,SSW,202,2.0,6.0,41,0.00,,,0.00,300.000000,,2013-11-01 17:43:00,
2013-11-01 10:52:00,61.0,37.0,-100.00,SSW,202,2.0,6.0,41,0.00,,,0.00,300.000000,,2013-11-01 17:52:00,
2013-11-01 11:01:00,61.0,37.0,-100.00,SSW,202,2.0,6.0,41,0.00,,,0.00,300.000000,,2013-11-01 18:01:00,
2013-11-01 11:42:00,69.0,39.0,-100.00,ESE,112,0.0,5.0,33,0.00,,,0.00,458.000000,,2013-11-01 18:42:00,
2013-11-01 11:52:00,69.0,39.0,-100.00,ESE,112,0.0,5.0,33,0.00,,,0.00,458.000000,,2013-11-01 18:52:00,
2013-11-01 12:01:00,69.0,39.0,-100.00,ESE,112,0.0,5.0,33,0.00,,,0.00,458.000000,,2013-11-01 19:01:00,
2013-11-01 12:42:00,75.0,34.0,-100.00,East,85,3.0,7.0,22,0.00,,,0.00,539.000000,,2013-11-01 19:42:00,
2013-11-01 12:52:00,75.0,34.0,-100.00,East,85,3.0,7.0,22,0.00,,,0.00,539.000000,,2013-11-01 19:52:00,
2013-11-01 13:02:00,75.0,34.0,-100.00,East,85,3.0,7.0,22,0.00,,,0.00,539.000000,,2013-11-01 20:02:00,
2013-11-01 13:42:00,80.0,37.0,-100.00,East,82,4.0,10.0,21,0.00,,,0.00,660.000000,,2013-11-01 20:42:00,
2013-11-01 13:52:00,80.0,37.0,-100.00,East,82,4.0,10.0,21,0.00,,,0.00,660.000000,,2013-11-01 20:52:00,
2013-11-01 14:01:00,80.0,37.0,-100.00,East,82,4.0,10.0,21,0.00,,,0.00,660.000000,,2013-11-01 21:01:00,
2013-11-01 14:22:00,82.0,34.0,-100.00,East,97,4.0,9.0,18,0.00,,,0.00,649.000000,,2013-11-01 21:22:00,
2013-11-01 14:34:00,82.0,34.0,-100.00,East,97,4.0,9.0,18,0.00,,,0.00,649.000000,,2013-11-01 21:34:00,
2013-11-01 14:43:00,82.0,34.0,-100.00,East,97,4.0,9.0,18,0.00,,,0.00,649.000000,,2013-11-01 21:43:00,
2013-11-01 14:55:00,82.0,34.0,-100.00,East,97,4.0,9.0,18,0.00,,,0.00,649.000000,,2013-11-01 21:55:00,
2013-11-01 15:03:00,82.0,34.0,-100.00,East,97,4.0,9.0,18,0.00,,,0.00,649.000000,,2013-11-01 22:03:00,
2013-11-01 17:42:00,74.0,30.0,-100.00,SW,228,2.0,5.0,20,-99.99,,,0.00,279.000000,,2013-11-02 00:42:00,
2013-11-01 17:52:00,74.0,30.0,-100.00,SW,228,2.0,5.0,20,-99.99,,,0.00,279.000000,,2013-11-02 00:52:00,
2013-11-01 18:01:00,74.0,30.0,-100.00,SW,228,2.0,5.0,20,-99.99,,,0.00,279.000000,,2013-11-02 01:01:00,
2013-11-01 18:42:00,66.0,31.0,-100.00,SW,235,2.0,4.0,27,0.00,,,0.00,16.000000,,2013-11-02 01:42:00,
2013-11-01 18:52:00,66.0,31.0,-100.00,SW,235,2.0,4.0,27,0.00,,,0.00,16.000000,,2013-11-02 01:52:00,
2013-11-01 19:02:00,66.0,31.0,-100.00,SW,235,2.0,4.0,27,0.00,,,0.00,16.000000,,2013-11-02 02:02:00,
2013-11-01 19:42:00,63.0,30.0,-100.00,SW,215,2.0,5.0,29,0.00,,,0.00,1.000000,,2013-11-02 02:42:00,
2013-11-01 19:53:00,63.0,30.0,-100.00,SW,215,2.0,5.0,29,0.00,,,0.00,1.000000,,2013-11-02 02:53:00,
2013-11-01 20:02:00,63.0,30.0,-100.00,SW,215,2.0,5.0,29,0.00,,,0.00,1.000000,,2013-11-02 03:02:00,
2013-11-01 20:44:00,60.0,31.0,-100.00,SSW,206,3.0,6.0,33,0.00,,,0.00,0.000000,,2013-11-02 03:44:00,
2013-11-01 20:53:00,60.0,31.0,-100.00,SSW,206,3.0,6.0,33,0.00,,,0.00,0.000000,,2013-11-02 03:53:00,
2013-11-01 21:03:00,60.0,31.0,-100.00,SSW,206,3.0,6.0,33,0.00,,,0.00,0.000000,,2013-11-02 04:03:00,
2013-11-01 21:04:00,56.0,31.0,-100.00,SW,234,1.0,6.0,38,0.00,,,0.00,0.000000,,2013-11-02 04:04:00,
2013-11-01 21:44:00,56.0,31.0,-100.00,SW,234,1.0,6.0,38,0.00,,,0.00,0.000000,,2013-11-02 04:44:00,
2013-11-01 21:54:00,56.0,31.0,-100.00,SW,234,1.0,6.0,38,0.00,,,0.00,0.000000,,2013-11-02 04:54:00,
2013-11-01 22:42:00,54.0,30.0,-100.00,SW,229,2.0,6.0,39,0.00,,,0.00,0.000000,,2013-11-02 05:42:00,
2013-11-01 22:52:00,54.0,30.0,-100.00,SW,229,2.0,6.0,39,0.00,,,0.00,0.000000,,2013-11-02 05:52:00,
2013-11-01 23:02:00,54.0,30.0,-100.00,SW,229,2.0,6.0,39,0.00,,,0.00,0.000000,,2013-11-02 06:02:00,
2013-11-01 23:22:00,54.0,30.0,-100.00,WSW,241,3.0,7.0,40,0.00,,,0.00,0.000000,,2013-11-02 06:22:00,
2013-11-01 23:32:00,54.0,30.0,-100.00,WSW,241,3.0,7.0,40,0.00,,,0.00,0.000000,,2013-11-02 06:32:00,
2013-11-01 23:43:00,54.0,30.0,-100.00,WSW,241,3.0,7.0,40,0.00,,,0.00,0.000000,,2013-11-02 06:43:00,
2013-11-01 23:52:00,54.0,30.0,-100.00,WSW,241,3.0,7.0,40,0.00,,,0.00,0.000000,,2013-11-02 06:52:00,